Weather History for Bentonville, AR

Change the Weather History Date:

Sunday, June 2, 2013

  Actual Average Record
Temperature  
Mean Temperature 60 °F -  
Max Temperature 66 °F 78 °F 90 °F (1953)
Min Temperature 53 °F 57 °F 44 °F (1956)
Degree Days  
Heating Degree Days 6    
Growing Degree Days 10 (Base 50)    
Moisture  
Dew Point 53 °F    
Average Humidity 77    
Maximum Humidity 94    
Minimum Humidity 64    
Precipitation  
Precipitation 0.00 in - - ()
Sea Level Pressure  
Sea Level Pressure 30.03 in    
Wind  
Wind Speed 5 mph (North)    
Max Wind Speed 12 mph    
Max Gust Speed 16 mph    
Visibility 10 miles    
Events      
Averages and records for this station are not official NWS values.
T = Trace of Precipitation, MM = Missing Value Source: NWS Daily Summary

Daily Weather History Graph

Daily Weather History Graph

Search for Another Location

Airport:

Trip Planner

Search our weather history database for the weather conditions in past years. The results will help you decide how hot, cold, wet, or windy it might be!

Date:

Astronomy

Jun. 02, 2013 Rise Set
Actual Time 6:00 AM CDT 8:30 PM CDT
Civil Twilight 5:30 AM CDT 8:59 PM CDT
Nautical Twilight 4:53 AM CDT 9:37 PM CDT
Astronomical Twilight 4:12 AM CDT 10:18 PM CDT
Moon 2:18 AM CDT (6/2) 3:09 PM CDT (6/2)
Length of Visible Light 15h 29m
Length of Day
14h 29m
Waning Crescent, 30% of the Moon is Illuminated
Jun 2
Waning Crescent
Jun 8
New
Jun 16
First Quarter
Jun 23
Full
Jun 29
Last Quarter

Hourly Weather History & Observations

Time (CDT) Temp. Dew Point Humidity Pressure Visibility Wind Dir Wind Speed Gust Speed Precip Events Conditions
12:15 AM 60.8 °F 53.6 °F 77% 30.00 in 10.0 mi NNW 4.6 mph - N/A   Clear
12:35 AM 60.8 °F 53.6 °F 77% 29.99 in 10.0 mi North 4.6 mph - N/A   Clear
12:55 AM 60.8 °F 53.6 °F 77% 30.00 in 10.0 mi NNW 4.6 mph - N/A   Clear
1:15 AM 60.8 °F 53.6 °F 77% 30.00 in 10.0 mi NNW 4.6 mph - N/A   Clear
1:35 AM 60.8 °F 53.6 °F 77% 30.00 in 10.0 mi NNW 3.5 mph - N/A   Clear
1:55 AM 60.8 °F 53.6 °F 77% 30.01 in 10.0 mi Calm Calm - N/A   Clear
2:16 AM 57.2 °F 53.6 °F 88% 30.01 in 10.0 mi Calm Calm - N/A   Clear
2:35 AM 57.2 °F 53.6 °F 88% 30.00 in 10.0 mi Calm Calm - N/A   Clear
2:55 AM 57.2 °F 53.6 °F 88% 30.00 in 10.0 mi Calm Calm - N/A   Clear
3:15 AM 55.4 °F 51.8 °F 88% 30.00 in 10.0 mi Calm Calm - N/A   Clear
3:35 AM 55.4 °F 51.8 °F 88% 30.00 in 10.0 mi Calm Calm - N/A   Clear
3:55 AM 55.4 °F 51.8 °F 88% 29.99 in 10.0 mi Calm Calm - N/A   Clear
4:15 AM 55.4 °F 51.8 °F 88% 29.99 in 10.0 mi Calm Calm - N/A   Clear
4:35 AM 55.4 °F 53.6 °F 94% 29.98 in 10.0 mi NNW 3.5 mph - N/A   Clear
4:55 AM 55.4 °F 51.8 °F 88% 29.99 in 10.0 mi Calm Calm - N/A   Clear
5:15 AM 53.6 °F 51.8 °F 94% 29.99 in 10.0 mi Calm Calm - N/A   Clear
5:36 AM 55.4 °F 51.8 °F 88% 30.00 in 10.0 mi WSW 3.5 mph - N/A   Clear
5:55 AM 53.6 °F 51.8 °F 94% 30.01 in 10.0 mi Calm Calm - N/A   Clear
6:15 AM 55.4 °F 51.8 °F 88% 30.01 in 10.0 mi Calm Calm - N/A   Clear
6:35 AM 55.4 °F 53.6 °F 94% 30.02 in 10.0 mi Calm Calm - N/A   Clear
6:55 AM 57.2 °F 53.6 °F 88% 30.02 in 10.0 mi NNW 3.5 mph - N/A   Clear
7:15 AM 57.2 °F 53.6 °F 88% 30.02 in 10.0 mi NW 3.5 mph - N/A   Clear
7:35 AM 59.0 °F 53.6 °F 82% 30.02 in 10.0 mi North 4.6 mph - N/A   Mostly Cloudy
7:56 AM 59.0 °F 55.4 °F 88% 30.03 in 10.0 mi NNW 5.8 mph - N/A   Overcast
8:15 AM 60.8 °F 55.4 °F 82% 30.03 in 10.0 mi NNW 5.8 mph - N/A   Overcast
8:35 AM 60.8 °F 55.4 °F 82% 30.04 in 10.0 mi North 6.9 mph - N/A   Overcast
8:56 AM 60.8 °F 55.4 °F 82% 30.04 in 10.0 mi North 6.9 mph - N/A   Overcast
9:15 AM 62.6 °F 55.4 °F 77% 30.04 in 10.0 mi North 11.5 mph - N/A   Mostly Cloudy
9:35 AM 60.8 °F 55.4 °F 82% 30.05 in 10.0 mi NNE 9.2 mph - N/A   Mostly Cloudy
9:56 AM 62.6 °F 55.4 °F 77% 30.06 in 10.0 mi North 6.9 mph - N/A   Overcast
10:15 AM 62.6 °F 53.6 °F 72% 30.06 in 10.0 mi NNE 4.6 mph - N/A   Overcast
10:35 AM 64.4 °F 55.4 °F 73% 30.05 in 10.0 mi NNW 8.1 mph - N/A   Mostly Cloudy
10:56 AM 64.4 °F 53.6 °F 68% 30.05 in 10.0 mi North 10.4 mph - N/A   Scattered Clouds
11:15 AM 64.4 °F 53.6 °F 68% 30.06 in 10.0 mi North 11.5 mph 16.1 mph N/A   Mostly Cloudy
11:35 AM 64.4 °F 53.6 °F 68% 30.06 in 10.0 mi NNW 6.9 mph - N/A   Mostly Cloudy
11:55 AM 64.4 °F 53.6 °F 68% 30.06 in 10.0 mi North 8.1 mph - N/A   Overcast
12:15 PM 66.2 °F 53.6 °F 64% 30.06 in 10.0 mi North 8.1 mph - N/A   Overcast
12:35 PM 64.4 °F 53.6 °F 68% 30.06 in 10.0 mi NNW 8.1 mph - N/A   Overcast
12:55 PM 64.4 °F 53.6 °F 68% 30.06 in 10.0 mi North 5.8 mph - N/A   Overcast
1:16 PM 66.2 °F 53.6 °F 64% 30.06 in 10.0 mi North 6.9 mph - N/A   Overcast
1:35 PM 66.2 °F 53.6 °F 64% 30.06 in 10.0 mi NW 9.2 mph - N/A   Overcast
1:55 PM 66.2 °F 53.6 °F 64% 30.05 in 10.0 mi North 8.1 mph - N/A   Overcast
2:15 PM 66.2 °F 53.6 °F 64% 30.05 in 7.0 mi NNW 6.9 mph - N/A   Overcast
2:35 PM 66.2 °F 53.6 °F 64% 30.05 in 10.0 mi North 8.1 mph - N/A   Overcast
2:55 PM 66.2 °F 53.6 °F 64% 30.04 in 10.0 mi NW 5.8 mph - N/A   Overcast
3:15 PM 66.2 °F 53.6 °F 64% 30.04 in 10.0 mi NNW 8.1 mph - N/A   Overcast
3:36 PM 64.4 °F 53.6 °F 68% 30.04 in 10.0 mi NNW 8.1 mph - N/A   Overcast
3:55 PM 66.2 °F 53.6 °F 64% 30.04 in 10.0 mi NNW 6.9 mph - N/A   Overcast
4:15 PM 64.4 °F 53.6 °F 68% 30.04 in 10.0 mi North 9.2 mph - N/A   Overcast
4:35 PM 64.4 °F 53.6 °F 68% 30.03 in 10.0 mi North 9.2 mph - N/A   Overcast
4:55 PM 64.4 °F 53.6 °F 68% 30.03 in 10.0 mi NNW 5.8 mph - N/A   Overcast
5:15 PM 64.4 °F 53.6 °F 68% 30.03 in 10.0 mi North 9.2 mph - N/A   Overcast
5:36 PM 64.4 °F 53.6 °F 68% 30.02 in 10.0 mi North 9.2 mph - N/A   Overcast
5:55 PM 64.4 °F 53.6 °F 68% 30.02 in 10.0 mi North 8.1 mph - N/A   Overcast
6:15 PM 64.4 °F 53.6 °F 68% 30.02 in 10.0 mi NNW 9.2 mph - N/A   Overcast
6:35 PM 64.4 °F 53.6 °F 68% 30.02 in 10.0 mi NNE 10.4 mph - N/A   Overcast
6:55 PM 62.6 °F 53.6 °F 72% 30.02 in 10.0 mi NNE 8.1 mph - N/A   Overcast
7:15 PM 62.6 °F 53.6 °F 72% 30.02 in 10.0 mi NNE 9.2 mph - N/A   Overcast
7:35 PM 62.6 °F 53.6 °F 72% 30.02 in 10.0 mi NNE 8.1 mph - N/A   Overcast
7:56 PM 62.6 °F 53.6 °F 72% 30.02 in 10.0 mi NNE 6.9 mph - N/A   Mostly Cloudy
8:15 PM 60.8 °F 53.6 °F 77% 30.02 in 10.0 mi NNE 8.1 mph - N/A   Partly Cloudy
8:35 PM 60.8 °F 53.6 °F 77% 30.02 in 10.0 mi NNE 6.9 mph - N/A   Clear
8:55 PM 59.0 °F 53.6 °F 82% 30.02 in 10.0 mi NNE 6.9 mph - N/A   Clear
9:16 PM 59.0 °F 53.6 °F 82% 30.02 in 10.0 mi NE 5.8 mph - N/A   Clear
9:35 PM 57.2 °F 51.8 °F 82% 30.02 in 10.0 mi NE 5.8 mph - N/A   Clear
9:55 PM 57.2 °F 51.8 °F 82% 30.03 in 10.0 mi ENE 4.6 mph - N/A   Clear
10:15 PM 57.2 °F 51.8 °F 82% 30.02 in 10.0 mi ENE 6.9 mph - N/A   Clear
10:35 PM 57.2 °F 51.8 °F 82% 30.02 in 10.0 mi ENE 5.8 mph - N/A   Clear
10:55 PM 57.2 °F 51.8 °F 82% 30.02 in 10.0 mi ENE 6.9 mph - N/A   Clear
11:15 PM 55.4 °F 51.8 °F 88% 30.02 in 10.0 mi East 4.6 mph - N/A   Clear
11:35 PM 55.4 °F 51.8 °F 88% 30.02 in 10.0 mi ENE 3.5 mph - N/A   Clear
11:55 PM 55.4 °F 51.8 °F 88% 30.02 in 10.0 mi ENE 3.5 mph - N/A   Clear